createdAt,value
2019-05-01T00:02:13.408Z,7.50
2019-05-01T00:05:01.518Z,7.48
2019-05-01T00:07:35.438Z,7.50
2019-05-01T00:10:06.334Z,7.43
2019-05-01T00:12:35.528Z,7.37
2019-05-01T00:15:05.562Z,7.26
2019-05-01T00:17:35.024Z,7.19
2019-05-01T00:20:04.859Z,7.23
2019-05-01T00:22:34.105Z,7.21
2019-05-01T00:25:03.297Z,7.18
2019-05-01T00:27:32.449Z,7.06
2019-05-01T00:30:01.627Z,7.09
2019-05-01T00:32:30.787Z,7.01
2019-05-01T00:34:59.991Z,6.86
2019-05-01T00:37:29.155Z,6.79
2019-05-01T00:39:58.333Z,6.90
2019-05-01T00:42:27.644Z,6.83
2019-05-01T00:44:56.838Z,6.73
2019-05-01T00:47:26.144Z,6.81
2019-05-01T00:49:55.325Z,6.84
2019-05-01T00:52:24.659Z,6.71
2019-05-01T00:55:12.760Z,6.71
2019-05-01T00:57:46.799Z,6.72
2019-05-01T01:00:44.236Z,6.59
2019-05-01T01:03:13.411Z,6.57
2019-05-01T01:05:42.572Z,6.54
2019-05-01T01:08:11.750Z,6.54
2019-05-01T01:10:40.903Z,6.55
2019-05-01T01:13:10.083Z,6.52
2019-05-01T01:15:39.248Z,6.51
2019-05-01T01:18:08.446Z,6.52
2019-05-01T01:20:37.713Z,6.62
2019-05-01T01:23:06.907Z,6.66
2019-05-01T01:25:36.065Z,6.67
2019-05-01T01:28:05.675Z,6.63
2019-05-01T01:30:34.830Z,6.61
2019-05-01T01:33:04.081Z,6.52
2019-05-01T01:35:33.231Z,6.50
2019-05-01T01:38:02.430Z,6.48
2019-05-01T01:40:31.775Z,6.51
2019-05-01T01:43:19.962Z,6.43
2019-05-01T01:45:50.460Z,6.31
2019-05-01T01:48:19.738Z,6.24
2019-05-01T01:50:49.280Z,6.15
2019-05-01T01:53:21.806Z,6.00
2019-05-01T01:55:51.925Z,5.91
2019-05-01T01:58:22.540Z,5.97
2019-05-01T02:01:23.243Z,6.02
2019-05-01T02:03:56.739Z,6.13
2019-05-01T02:06:25.945Z,6.14
2019-05-01T02:08:56.635Z,6.13
2019-05-01T02:11:26.327Z,6.15
2019-05-01T02:13:57.729Z,6.09
2019-05-01T02:16:26.884Z,5.95
2019-05-01T02:18:56.032Z,5.76
2019-05-01T02:21:25.200Z,5.66
2019-05-01T02:23:54.355Z,5.57
2019-05-01T02:26:25.188Z,5.51
2019-05-01T02:29:01.803Z,5.49
2019-05-01T02:31:36.315Z,5.46
2019-05-01T02:34:06.359Z,5.48
2019-05-01T02:36:37.241Z,5.41
2019-05-01T02:39:09.389Z,5.38
2019-05-01T02:41:41.987Z,5.39
2019-05-01T02:44:20.351Z,5.54
2019-05-01T02:46:51.882Z,5.62
2019-05-01T02:49:32.823Z,5.65
2019-05-01T02:52:03.911Z,5.68
2019-05-01T02:54:35.014Z,5.67
2019-05-01T02:57:12.905Z,5.71
2019-05-01T02:59:45.839Z,5.66
2019-05-01T03:02:15.730Z,5.56
2019-05-01T03:04:46.215Z,5.43
2019-05-01T03:07:16.278Z,5.28
2019-05-01T03:09:46.564Z,5.22
2019-05-01T03:12:18.123Z,5.31
2019-05-01T03:14:50.592Z,5.40
2019-05-01T03:17:55.535Z,5.31
2019-05-01T03:20:46.582Z,5.22
2019-05-01T03:23:23.163Z,5.17
2019-05-01T03:25:54.161Z,5.12
2019-05-01T03:28:23.506Z,5.19
2019-05-01T03:30:52.824Z,5.29
2019-05-01T03:33:22.333Z,5.27
2019-05-01T03:35:51.745Z,5.17
2019-05-01T03:38:20.920Z,4.93
2019-05-01T03:40:50.721Z,4.90
2019-05-01T03:43:20.710Z,5.01
2019-05-01T03:45:49.879Z,4.85
2019-05-01T03:48:19.225Z,4.87
2019-05-01T03:50:49.286Z,4.84
2019-05-01T03:53:19.195Z,4.83
2019-05-01T03:55:48.754Z,4.83
2019-05-01T03:58:18.778Z,4.82
2019-05-01T04:01:09.903Z,4.98
2019-05-01T04:03:43.897Z,5.05
2019-05-01T04:06:13.345Z,5.08
2019-05-01T04:08:42.504Z,5.17
2019-05-01T04:11:12.012Z,5.10
2019-05-01T04:13:41.497Z,5.15
2019-05-01T04:16:10.830Z,5.22
2019-05-01T04:18:40.784Z,5.32
2019-05-01T04:21:10.513Z,5.28
2019-05-01T04:23:42.742Z,5.35
2019-05-01T04:26:12.232Z,5.31
2019-05-01T04:28:59.522Z,5.38
2019-05-01T04:31:42.423Z,5.33
2019-05-01T04:34:27.485Z,5.20
2019-05-01T04:36:58.950Z,5.26
2019-05-01T04:39:28.690Z,5.36
2019-05-01T04:41:57.943Z,5.47
2019-05-01T04:44:27.592Z,5.41
2019-05-01T04:46:57.794Z,5.33
2019-05-01T04:49:27.249Z,5.31
2019-05-01T04:51:57.437Z,5.36
2019-05-01T04:54:26.683Z,5.38
2019-05-01T04:56:56.731Z,5.28
2019-05-01T04:59:26.120Z,5.29
2019-05-01T05:01:58.259Z,5.51
2019-05-01T05:04:27.947Z,5.71
2019-05-01T05:06:57.124Z,5.85
2019-05-01T05:09:57.646Z,5.90
2019-05-01T05:12:40.249Z,5.97
2019-05-01T05:15:26.259Z,5.95
2019-05-01T05:17:55.670Z,5.84
2019-05-01T05:20:25.681Z,5.84
2019-05-01T05:22:55.382Z,5.97
2019-05-01T05:25:24.697Z,6.21
2019-05-01T05:27:54.584Z,6.41
2019-05-01T05:30:26.229Z,6.62
2019-05-01T05:32:56.406Z,6.68
2019-05-01T05:35:27.357Z,7.04
2019-05-01T05:38:15.840Z,7.72
2019-05-01T05:40:46.012Z,8.03
2019-05-01T05:43:16.251Z,7.94
2019-05-01T05:45:45.519Z,7.79
2019-05-01T05:48:14.842Z,7.65
2019-05-01T05:50:55.245Z,7.50
2019-05-01T05:53:27.555Z,7.45
2019-05-01T05:56:00.820Z,7.40
2019-05-01T05:58:41.323Z,7.44
2019-05-01T06:01:38.256Z,7.54
2019-05-01T06:04:31.218Z,7.63
2019-05-01T06:07:37.453Z,7.87
2019-05-01T06:10:45.632Z,8.04
2019-05-01T06:13:24.304Z,8.15
2019-05-01T06:16:18.532Z,8.40
2019-05-01T06:19:04.177Z,8.62
2019-05-01T06:21:49.148Z,8.91
2019-05-01T06:24:29.167Z,9.08
2019-05-01T06:27:00.124Z,9.31
2019-05-01T06:29:30.916Z,9.37
2019-05-01T06:32:00.984Z,9.49
2019-05-01T06:34:30.201Z,9.71
2019-05-01T06:36:59.470Z,9.71
2019-05-01T06:39:28.752Z,9.98
2019-05-01T06:41:58.398Z,10.11
2019-05-01T06:44:39.081Z,10.30
2019-05-01T06:47:29.972Z,10.52
2019-05-01T06:50:37.174Z,10.65
2019-05-01T06:53:07.312Z,10.75
2019-05-01T06:55:37.699Z,11.13
2019-05-01T06:58:07.165Z,11.26
2019-05-01T07:00:42.689Z,11.34
2019-05-01T07:03:10.472Z,11.77
2019-05-01T07:05:41.229Z,12.23
2019-05-01T07:08:23.810Z,12.30
2019-05-01T07:10:44.061Z,12.52
2019-05-01T07:13:12.790Z,12.73
2019-05-01T07:15:42.277Z,13.30
2019-05-01T07:18:12.902Z,13.77
2019-05-01T07:20:53.351Z,14.09
2019-05-01T07:23:23.782Z,14.13
2019-05-01T07:25:53.189Z,14.12
2019-05-01T07:28:24.007Z,14.02
2019-05-01T07:30:57.178Z,14.13
2019-05-01T07:33:26.905Z,14.60
2019-05-01T07:35:56.445Z,14.60
2019-05-01T07:38:26.030Z,14.60
2019-05-01T07:40:58.843Z,14.86
2019-05-01T07:43:46.010Z,15.00
2019-05-01T07:46:42.923Z,14.95
2019-05-01T07:49:13.107Z,15.56
2019-05-01T07:51:51.014Z,15.98
2019-05-01T07:54:21.830Z,16.22
2019-05-01T07:56:52.399Z,16.38
2019-05-01T07:59:22.786Z,16.51
2019-05-01T08:02:02.511Z,16.70
2019-05-01T08:04:36.420Z,16.59
2019-05-01T08:07:02.790Z,16.38
2019-05-01T08:09:32.150Z,17.19
2019-05-01T08:12:01.375Z,16.60
2019-05-01T08:14:30.823Z,16.48
2019-05-01T08:17:00.043Z,17.24
2019-05-01T08:19:39.477Z,16.52
2019-05-01T08:22:10.733Z,17.24
2019-05-01T08:24:39.874Z,17.43
2019-05-01T08:27:15.652Z,16.63
2019-05-01T08:30:12.814Z,17.43
2019-05-01T08:32:48.782Z,17.96
2019-05-01T08:35:20.026Z,17.84
2019-05-01T08:37:53.816Z,17.34
2019-05-01T08:40:22.430Z,17.54
2019-05-01T08:42:51.756Z,17.24
2019-05-01T08:45:40.906Z,17.33
2019-05-01T08:48:23.627Z,17.64
2019-05-01T08:50:54.556Z,17.95
2019-05-01T08:53:25.323Z,17.50
2019-05-01T08:55:54.502Z,18.35
2019-05-01T08:58:23.722Z,18.25
2019-05-01T09:00:53.051Z,18.27
2019-05-01T09:03:22.282Z,18.34
2019-05-01T09:05:52.210Z,19.18
2019-05-01T09:08:22.423Z,20.38
2019-05-01T09:10:54.755Z,19.05
2019-05-01T09:13:23.819Z,18.82
2019-05-01T09:15:53.862Z,19.30
2019-05-01T09:18:23.092Z,19.83
2019-05-01T09:20:54.539Z,19.89
2019-05-01T09:23:23.740Z,19.32
2019-05-01T09:26:15.897Z,19.76
2019-05-01T09:28:46.744Z,20.76
2019-05-01T09:31:16.944Z,21.33
2019-05-01T09:33:46.367Z,22.28
2019-05-01T09:36:15.598Z,22.68
2019-05-01T09:38:44.887Z,21.62
2019-05-01T09:41:14.034Z,19.80
2019-05-01T09:43:43.279Z,19.63
2019-05-01T09:46:12.580Z,19.06
2019-05-01T09:48:41.920Z,19.57
2019-05-01T09:51:42.545Z,20.72
2019-05-01T09:54:19.338Z,20.66
2019-05-01T09:56:48.817Z,20.57
2019-05-01T09:59:19.148Z,20.46
2019-05-01T10:01:48.372Z,20.73
2019-05-01T10:04:17.694Z,20.97
2019-05-01T10:06:47.760Z,19.61
2019-05-01T10:09:18.084Z,20.33
2019-05-01T10:11:47.410Z,21.31
2019-05-01T10:14:16.588Z,21.14
2019-05-01T10:16:45.750Z,22.67
2019-05-01T10:19:15.115Z,23.57
2019-05-01T10:21:44.559Z,22.16
2019-05-01T10:24:14.079Z,21.35
2019-05-01T10:26:45.294Z,22.13
2019-05-01T10:29:42.712Z,22.37
2019-05-01T10:32:39.842Z,21.33
2019-05-01T10:35:21.100Z,20.92
2019-05-01T10:37:50.344Z,22.04
2019-05-01T10:40:22.235Z,23.54
2019-05-01T10:42:50.701Z,23.96
2019-05-01T10:45:19.939Z,24.41
2019-05-01T10:47:49.318Z,24.68
2019-05-01T10:50:18.520Z,23.60
2019-05-01T10:52:47.727Z,24.17
2019-05-01T10:55:17.011Z,24.68
2019-05-01T10:57:46.301Z,24.69
2019-05-01T11:00:15.741Z,23.16
2019-05-01T11:02:45.084Z,23.63
2019-05-01T11:05:14.393Z,23.80
2019-05-01T11:07:43.826Z,24.49
2019-05-01T11:10:13.453Z,25.23
2019-05-01T11:12:42.728Z,23.64
2019-05-01T11:15:14.254Z,24.63
2019-05-01T11:17:43.544Z,24.82
2019-05-01T11:20:12.811Z,23.49
2019-05-01T11:22:42.055Z,24.85
2019-05-01T11:25:13.211Z,23.17
2019-05-01T11:27:42.439Z,23.18
2019-05-01T11:30:11.741Z,22.47
2019-05-01T11:32:54.390Z,22.66
2019-05-01T11:35:43.011Z,23.35
2019-05-01T11:38:30.054Z,24.13
2019-05-01T11:41:03.058Z,24.32
2019-05-01T11:43:32.210Z,24.28
2019-05-01T11:46:01.717Z,24.79
2019-05-01T11:48:32.047Z,24.15
2019-05-01T11:51:01.260Z,23.45
2019-05-01T11:53:30.496Z,24.53
2019-05-01T11:55:59.741Z,24.87
2019-05-01T11:58:28.977Z,24.88
2019-05-01T12:00:59.782Z,24.73
2019-05-01T12:03:28.977Z,25.05
2019-05-01T12:05:58.145Z,25.57
2019-05-01T12:08:27.555Z,25.96
2019-05-01T12:10:56.900Z,25.73
2019-05-01T12:13:26.107Z,25.46
2019-05-01T12:16:11.994Z,25.18
2019-05-01T12:18:41.152Z,23.86
2019-05-01T12:21:10.316Z,23.44
2019-05-01T12:23:39.548Z,24.39
2019-05-01T12:26:08.767Z,24.04
2019-05-01T12:28:38.346Z,24.99
2019-05-01T12:31:07.500Z,24.26
2019-05-01T12:33:36.603Z,24.78
2019-05-01T12:36:06.677Z,25.07
2019-05-01T12:38:35.835Z,25.13
2019-05-01T12:41:22.705Z,25.21
2019-05-01T12:43:51.892Z,25.29
2019-05-01T12:46:52.384Z,24.81
2019-05-01T12:49:21.720Z,25.04
2019-05-01T12:51:53.408Z,23.17
2019-05-01T12:54:33.192Z,24.50
2019-05-01T12:57:02.635Z,23.24
2019-05-01T12:59:31.806Z,23.27
2019-05-01T13:02:01.120Z,24.10
2019-05-01T13:04:30.277Z,24.77
2019-05-01T13:06:59.744Z,24.94
2019-05-01T13:09:28.903Z,24.41
2019-05-01T13:11:58.119Z,23.84
2019-05-01T13:14:27.345Z,23.02
2019-05-01T13:16:56.628Z,23.55
2019-05-01T13:19:25.756Z,24.17
2019-05-01T13:21:54.932Z,24.42
2019-05-01T13:24:24.177Z,24.59
2019-05-01T13:27:13.276Z,24.67
2019-05-01T13:29:50.287Z,24.90
2019-05-01T13:32:41.359Z,24.11
2019-05-01T13:35:11.319Z,22.93
2019-05-01T13:37:40.520Z,23.99
2019-05-01T13:40:10.242Z,24.33
2019-05-01T13:42:39.598Z,24.61
2019-05-01T13:45:09.386Z,24.93
2019-05-01T13:47:38.544Z,25.08
2019-05-01T13:50:08.600Z,25.46
2019-05-01T13:52:38.110Z,25.22
2019-05-01T13:55:08.401Z,25.34
2019-05-01T13:57:37.572Z,25.31
2019-05-01T14:00:07.843Z,24.98
2019-05-01T14:02:37.238Z,24.60
2019-05-01T14:05:26.867Z,24.02
2019-05-01T14:07:56.071Z,24.84
2019-05-01T14:10:25.260Z,24.57
2019-05-01T14:12:54.501Z,24.53
2019-05-01T14:15:23.656Z,24.11
2019-05-01T14:17:53.237Z,23.56
2019-05-01T14:20:53.660Z,23.55
2019-05-01T14:23:39.571Z,23.64
2019-05-01T14:26:08.740Z,23.96
2019-05-01T14:28:38.009Z,24.04
2019-05-01T14:31:07.513Z,24.05
2019-05-01T14:33:37.612Z,24.29
2019-05-01T14:36:06.827Z,24.54
2019-05-01T14:38:36.259Z,24.40
2019-05-01T14:41:05.635Z,23.61
2019-05-01T14:43:34.851Z,23.48
2019-05-01T14:46:04.091Z,23.35
2019-05-01T14:48:33.456Z,23.50
2019-05-01T14:51:02.881Z,23.75
2019-05-01T14:53:32.041Z,23.01
2019-05-01T14:56:01.220Z,23.02
2019-05-01T14:58:30.723Z,23.43
2019-05-01T15:01:00.189Z,23.58
2019-05-01T15:03:29.380Z,23.78
2019-05-01T15:05:58.604Z,23.91
2019-05-01T15:08:27.762Z,23.66
2019-05-01T15:10:56.939Z,23.02
2019-05-01T15:13:35.613Z,23.50
2019-05-01T15:16:14.746Z,23.63
2019-05-01T15:18:53.497Z,23.17
2019-05-01T15:21:22.951Z,22.66
2019-05-01T15:23:53.786Z,22.73
2019-05-01T15:26:23.282Z,22.72
2019-05-01T15:28:52.463Z,22.83
2019-05-01T15:31:21.669Z,23.09
2019-05-01T15:33:50.844Z,23.02
2019-05-01T15:36:20.368Z,22.14
2019-05-01T15:38:49.784Z,21.99
2019-05-01T15:41:50.106Z,21.91
2019-05-01T15:44:21.325Z,22.25
2019-05-01T15:46:50.556Z,21.84
2019-05-01T15:49:19.728Z,22.07
2019-05-01T15:51:49.036Z,21.77
2019-05-01T15:54:18.171Z,22.01
2019-05-01T15:56:47.567Z,21.63
2019-05-01T15:59:16.723Z,21.58
2019-05-01T16:01:46.008Z,21.38
2019-05-01T16:04:15.158Z,21.30
2019-05-01T16:06:44.362Z,21.54
2019-05-01T16:09:13.778Z,21.54
2019-05-01T16:12:01.954Z,21.68
2019-05-01T16:14:31.344Z,21.40
2019-05-01T16:17:00.559Z,21.73
2019-05-01T16:19:29.716Z,22.26
2019-05-01T16:21:58.908Z,22.19
2019-05-01T16:24:28.072Z,22.22
2019-05-01T16:26:57.319Z,21.94
2019-05-01T16:29:26.531Z,21.66
2019-05-01T16:31:55.862Z,22.13
2019-05-01T16:34:25.038Z,22.62
2019-05-01T16:36:54.233Z,22.69
2019-05-01T16:39:51.250Z,23.36
2019-05-01T16:42:29.618Z,23.41
2019-05-01T16:44:58.806Z,23.99
2019-05-01T16:47:28.100Z,24.16
2019-05-01T16:49:57.274Z,24.26
2019-05-01T16:52:31.418Z,24.99
2019-05-01T16:55:00.826Z,24.60
2019-05-01T16:57:30.009Z,23.54
2019-05-01T16:59:59.404Z,23.54
2019-05-01T17:03:03.071Z,23.83
2019-05-01T17:05:49.286Z,23.70
2019-05-01T17:08:36.405Z,23.14
2019-05-01T17:11:04.815Z,23.32
2019-05-01T17:13:34.023Z,23.63
2019-05-01T17:16:03.343Z,24.31
2019-05-01T17:18:32.647Z,24.51
2019-05-01T17:21:01.901Z,24.85
2019-05-01T17:23:31.216Z,24.94
2019-05-01T17:26:00.622Z,24.79
2019-05-01T17:28:32.596Z,24.82
2019-05-01T17:31:01.264Z,25.23
2019-05-01T17:33:30.766Z,25.05
2019-05-01T17:35:59.985Z,24.33
2019-05-01T17:38:29.148Z,23.89
2019-05-01T17:40:58.466Z,23.26
2019-05-01T17:43:27.653Z,22.90
2019-05-01T17:45:56.872Z,22.40
2019-05-01T17:48:28.917Z,22.08
2019-05-01T17:51:00.040Z,21.66
2019-05-01T17:53:28.009Z,21.24
2019-05-01T17:55:57.229Z,20.85
2019-05-01T17:58:26.463Z,20.55
2019-05-01T18:01:27.708Z,20.53
2019-05-01T18:04:13.767Z,20.38
2019-05-01T18:06:46.496Z,20.29
2019-05-01T18:09:17.044Z,20.07
2019-05-01T18:11:47.360Z,19.80
2019-05-01T18:14:17.150Z,19.52
2019-05-01T18:16:46.433Z,19.22
2019-05-01T18:19:15.833Z,18.86
2019-05-01T18:21:51.836Z,18.61
2019-05-01T18:24:39.010Z,18.29
2019-05-01T18:27:22.290Z,18.03
2019-05-01T18:29:53.690Z,17.84
2019-05-01T18:32:54.380Z,17.54
2019-05-01T18:35:23.610Z,17.36
2019-05-01T18:38:01.309Z,17.07
2019-05-01T18:40:43.209Z,16.85
2019-05-01T18:43:12.508Z,16.79
2019-05-01T18:45:56.359Z,16.59
2019-05-01T18:48:25.763Z,16.42
2019-05-01T18:50:56.353Z,16.10
2019-05-01T18:53:25.902Z,15.81
2019-05-01T18:55:55.250Z,15.56
2019-05-01T18:58:24.492Z,15.38
2019-05-01T19:00:53.911Z,15.28
2019-05-01T19:03:23.164Z,15.31
2019-05-01T19:05:52.630Z,15.12
2019-05-01T19:08:21.872Z,15.00
2019-05-01T19:10:51.224Z,14.85
2019-05-01T19:13:20.589Z,14.64
2019-05-01T19:15:49.967Z,14.51
2019-05-01T19:18:19.311Z,14.48
2019-05-01T19:20:58.978Z,14.46
2019-05-01T19:23:22.180Z,14.36
2019-05-01T19:25:50.897Z,14.45
2019-05-01T19:28:20.654Z,14.35
2019-05-01T19:30:50.036Z,14.19
2019-05-01T19:33:19.253Z,14.04
2019-05-01T19:35:48.459Z,13.93
2019-05-01T19:38:18.067Z,13.79
2019-05-01T19:40:47.321Z,13.64
2019-05-01T19:43:16.588Z,13.61
2019-05-01T19:45:45.892Z,13.45
2019-05-01T19:48:15.164Z,13.23
2019-05-01T19:50:48.409Z,13.00
2019-05-01T19:53:16.682Z,12.90
2019-05-01T19:55:46.739Z,12.92
2019-05-01T19:58:15.978Z,12.94
2019-05-01T20:01:05.155Z,12.98
2019-05-01T20:03:38.449Z,12.92
2019-05-01T20:06:08.338Z,12.86
2019-05-01T20:08:37.655Z,12.71
2019-05-01T20:11:09.900Z,12.61
2019-05-01T20:13:39.405Z,12.39
2019-05-01T20:16:09.865Z,12.25
2019-05-01T20:18:39.031Z,12.22
2019-05-01T20:21:08.332Z,12.30
2019-05-01T20:23:37.553Z,12.37
2019-05-01T20:26:06.747Z,12.35
2019-05-01T20:28:37.386Z,12.27
2019-05-01T20:31:06.881Z,12.23
2019-05-01T20:33:38.904Z,12.08
2019-05-01T20:36:07.414Z,12.04
2019-05-01T20:38:36.648Z,12.05
2019-05-01T20:41:10.257Z,11.92
2019-05-01T20:43:38.027Z,11.86
2019-05-01T20:46:07.900Z,11.83
2019-05-01T20:48:37.740Z,11.76
2019-05-01T20:51:07.062Z,11.66
2019-05-01T20:53:36.436Z,11.63
2019-05-01T20:56:15.868Z,11.56
2019-05-01T20:58:45.122Z,11.32
2019-05-01T21:01:14.361Z,11.07
2019-05-01T21:03:52.527Z,11.12
2019-05-01T21:06:28.190Z,11.16
2019-05-01T21:09:15.931Z,11.19
2019-05-01T21:11:48.773Z,11.25
2019-05-01T21:14:22.768Z,11.21
2019-05-01T21:16:51.184Z,11.24
2019-05-01T21:19:20.403Z,11.13
2019-05-01T21:21:49.601Z,10.90
2019-05-01T21:24:18.805Z,10.67
2019-05-01T21:26:47.990Z,10.59
2019-05-01T21:29:17.195Z,10.70
2019-05-01T21:31:46.424Z,10.70
2019-05-01T21:34:15.580Z,10.74
2019-05-01T21:36:47.748Z,10.77
2019-05-01T21:39:18.003Z,10.78
2019-05-01T21:41:46.577Z,10.79
2019-05-01T21:44:16.222Z,10.75
2019-05-01T21:46:45.373Z,10.61
2019-05-01T21:49:14.548Z,10.44
2019-05-01T21:51:46.063Z,10.27
2019-05-01T21:54:16.077Z,10.00
2019-05-01T21:56:45.643Z,9.90
2019-05-01T21:59:15.154Z,9.88
2019-05-01T22:01:44.502Z,9.82
2019-05-01T22:04:13.687Z,9.93
2019-05-01T22:06:46.823Z,10.08
2019-05-01T22:09:18.006Z,10.10
2019-05-01T22:11:47.362Z,10.00
2019-05-01T22:14:50.866Z,9.95
2019-05-01T22:17:37.389Z,9.99
2019-05-01T22:20:07.384Z,9.90
2019-05-01T22:22:45.903Z,9.72
2019-05-01T22:25:28.841Z,9.56
2019-05-01T22:28:04.178Z,9.51
2019-05-01T22:30:42.342Z,9.41
2019-05-01T22:33:11.345Z,9.48
2019-05-01T22:35:46.512Z,9.58
2019-05-01T22:38:15.710Z,9.53
2019-05-01T22:41:08.521Z,9.40
2019-05-01T22:43:37.974Z,9.34
2019-05-01T22:46:09.206Z,9.20
2019-05-01T22:48:38.437Z,9.12
2019-05-01T22:51:25.778Z,9.08
2019-05-01T22:53:54.984Z,9.23
2019-05-01T22:56:25.402Z,9.35
2019-05-01T22:58:54.659Z,9.42
2019-05-01T23:01:24.762Z,9.43
2019-05-01T23:03:55.891Z,9.44
2019-05-01T23:06:25.092Z,9.47
2019-05-01T23:08:55.797Z,9.46
2019-05-01T23:11:26.715Z,9.45
2019-05-01T23:13:55.892Z,9.32
2019-05-01T23:16:28.714Z,9.09
2019-05-01T23:18:57.639Z,8.94
2019-05-01T23:21:26.875Z,8.97
2019-05-01T23:23:56.844Z,9.02
2019-05-01T23:26:27.076Z,8.96
2019-05-01T23:28:56.380Z,8.85
2019-05-01T23:31:25.682Z,8.71
2019-05-01T23:33:54.961Z,8.62
2019-05-01T23:36:24.143Z,8.66
2019-05-01T23:38:53.475Z,8.62
2019-05-01T23:41:44.558Z,8.56
2019-05-01T23:43:58.102Z,8.68
2019-05-01T23:46:25.562Z,8.77
2019-05-01T23:48:54.723Z,8.74
2019-05-01T23:51:28.502Z,8.74
2019-05-01T23:53:54.757Z,8.64
2019-05-01T23:56:23.924Z,8.67
2019-05-01T23:58:53.053Z,8.65
